sensor_id;sensor_type;location;lat;lon;timestamp;P1;durP1;ratioP1;P2;durP2;ratioP2
67063;SDS011;58476;48.072;11.970;2022-07-29T00:00:22;1.80;;;1.63;;
67063;SDS011;58476;48.072;11.970;2022-07-29T00:02:47;1.70;;;1.60;;
67063;SDS011;58476;48.072;11.970;2022-07-29T00:05:13;3.70;;;1.58;;
67063;SDS011;58476;48.072;11.970;2022-07-29T00:07:38;1.70;;;1.60;;
67063;SDS011;58476;48.072;11.970;2022-07-29T00:10:03;4.10;;;1.60;;
67063;SDS011;58476;48.072;11.970;2022-07-29T00:12:29;1.48;;;1.33;;
67063;SDS011;58476;48.072;11.970;2022-07-29T00:14:55;1.50;;;1.40;;
67063;SDS011;58476;48.072;11.970;2022-07-29T00:17:22;2.25;;;1.50;;
67063;SDS011;58476;48.072;11.970;2022-07-29T00:19:48;1.50;;;1.40;;
67063;SDS011;58476;48.072;11.970;2022-07-29T00:22:13;2.17;;;1.50;;
67063;SDS011;58476;48.072;11.970;2022-07-29T00:24:39;2.13;;;1.50;;
67063;SDS011;58476;48.072;11.970;2022-07-29T00:27:04;1.58;;;1.25;;
67063;SDS011;58476;48.072;11.970;2022-07-29T00:29:29;1.60;;;1.50;;
67063;SDS011;58476;48.072;11.970;2022-07-29T00:31:55;1.60;;;1.50;;
67063;SDS011;58476;48.072;11.970;2022-07-29T00:34:20;2.63;;;1.40;;
67063;SDS011;58476;48.072;11.970;2022-07-29T00:36:45;1.88;;;1.30;;
67063;SDS011;58476;48.072;11.970;2022-07-29T00:39:11;1.50;;;1.40;;
67063;SDS011;58476;48.072;11.970;2022-07-29T00:41:36;1.60;;;1.50;;
67063;SDS011;58476;48.072;11.970;2022-07-29T00:44:01;1.70;;;1.45;;
67063;SDS011;58476;48.072;11.970;2022-07-29T00:46:27;1.63;;;1.50;;
67063;SDS011;58476;48.072;11.970;2022-07-29T00:48:52;1.67;;;1.40;;
67063;SDS011;58476;48.072;11.970;2022-07-29T00:51:17;1.30;;;1.20;;
67063;SDS011;58476;48.072;11.970;2022-07-29T00:53:43;1.50;;;1.40;;
67063;SDS011;58476;48.072;11.970;2022-07-29T00:56:09;1.40;;;1.30;;
67063;SDS011;58476;48.072;11.970;2022-07-29T00:58:34;1.30;;;1.20;;
67063;SDS011;58476;48.072;11.970;2022-07-29T01:00:59;1.75;;;1.25;;
67063;SDS011;58476;48.072;11.970;2022-07-29T01:03:25;1.35;;;1.20;;
67063;SDS011;58476;48.072;11.970;2022-07-29T01:05:50;2.80;;;1.30;;
67063;SDS011;58476;48.072;11.970;2022-07-29T01:08:15;2.35;;;1.10;;
67063;SDS011;58476;48.072;11.970;2022-07-29T01:10:42;1.77;;;1.13;;
67063;SDS011;58476;48.072;11.970;2022-07-29T01:13:08;2.53;;;1.20;;
67063;SDS011;58476;48.072;11.970;2022-07-29T01:15:36;1.55;;;1.25;;
67063;SDS011;58476;48.072;11.970;2022-07-29T01:18:18;1.70;;;1.10;;
67063;SDS011;58476;48.072;11.970;2022-07-29T01:26:33;1.52;;;1.23;;
67063;SDS011;58476;48.072;11.970;2022-07-29T01:29:17;2.08;;;1.38;;
67063;SDS011;58476;48.072;11.970;2022-07-29T01:31:56;1.30;;;1.15;;
67063;SDS011;58476;48.072;11.970;2022-07-29T01:34:31;1.67;;;1.10;;
67063;SDS011;58476;48.072;11.970;2022-07-29T01:39:55;2.67;;;1.25;;
67063;SDS011;58476;48.072;11.970;2022-07-29T01:45:15;1.00;;;1.00;;
67063;SDS011;58476;48.072;11.970;2022-07-29T01:47:45;1.80;;;1.30;;
67063;SDS011;58476;48.072;11.970;2022-07-29T01:50:47;1.20;;;1.00;;
67063;SDS011;58476;48.072;11.970;2022-07-29T01:53:35;1.13;;;0.95;;
67063;SDS011;58476;48.072;11.970;2022-07-29T01:56:03;1.67;;;1.38;;
67063;SDS011;58476;48.072;11.970;2022-07-29T01:58:31;1.52;;;1.20;;
67063;SDS011;58476;48.072;11.970;2022-07-29T02:01:00;1.50;;;1.40;;
67063;SDS011;58476;48.072;11.970;2022-07-29T02:03:27;1.52;;;1.02;;
67063;SDS011;58476;48.072;11.970;2022-07-29T02:05:55;2.88;;;1.10;;
67063;SDS011;58476;48.072;11.970;2022-07-29T02:08:22;2.17;;;1.10;;
67063;SDS011;58476;48.072;11.970;2022-07-29T02:10:49;1.30;;;0.95;;
67063;SDS011;58476;48.072;11.970;2022-07-29T02:13:16;1.63;;;1.00;;
67063;SDS011;58476;48.072;11.970;2022-07-29T02:15:43;1.10;;;1.00;;
67063;SDS011;58476;48.072;11.970;2022-07-29T02:18:16;2.15;;;1.00;;
67063;SDS011;58476;48.072;11.970;2022-07-29T02:20:50;1.48;;;0.90;;
67063;SDS011;58476;48.072;11.970;2022-07-29T02:23:19;1.35;;;0.98;;
67063;SDS011;58476;48.072;11.970;2022-07-29T02:25:47;1.20;;;1.10;;
67063;SDS011;58476;48.072;11.970;2022-07-29T02:28:15;1.20;;;1.10;;
67063;SDS011;58476;48.072;11.970;2022-07-29T02:30:42;1.30;;;1.05;;
67063;SDS011;58476;48.072;11.970;2022-07-29T02:33:10;1.25;;;1.20;;
67063;SDS011;58476;48.072;11.970;2022-07-29T02:35:38;0.95;;;0.90;;
67063;SDS011;58476;48.072;11.970;2022-07-29T02:38:05;0.98;;;0.98;;
67063;SDS011;58476;48.072;11.970;2022-07-29T02:40:33;1.30;;;1.15;;
67063;SDS011;58476;48.072;11.970;2022-07-29T02:43:02;1.08;;;1.00;;
67063;SDS011;58476;48.072;11.970;2022-07-29T02:45:31;1.15;;;0.98;;
67063;SDS011;58476;48.072;11.970;2022-07-29T02:47:57;3.80;;;1.02;;
67063;SDS011;58476;48.072;11.970;2022-07-29T02:50:31;2.28;;;1.17;;
67063;SDS011;58476;48.072;11.970;2022-07-29T02:55:37;2.47;;;0.90;;
67063;SDS011;58476;48.072;11.970;2022-07-29T02:58:11;1.10;;;1.00;;
67063;SDS011;58476;48.072;11.970;2022-07-29T03:00:41;1.30;;;0.98;;
67063;SDS011;58476;48.072;11.970;2022-07-29T03:03:09;1.23;;;1.10;;
67063;SDS011;58476;48.072;11.970;2022-07-29T03:05:37;5.57;;;1.10;;
67063;SDS011;58476;48.072;11.970;2022-07-29T03:08:04;1.13;;;1.02;;
67063;SDS011;58476;48.072;11.970;2022-07-29T03:10:31;1.10;;;1.00;;
67063;SDS011;58476;48.072;11.970;2022-07-29T03:12:57;2.92;;;0.93;;
67063;SDS011;58476;48.072;11.970;2022-07-29T03:15:23;0.88;;;0.88;;
67063;SDS011;58476;48.072;11.970;2022-07-29T03:17:49;2.70;;;1.10;;
67063;SDS011;58476;48.072;11.970;2022-07-29T03:20:16;1.20;;;1.10;;
67063;SDS011;58476;48.072;11.970;2022-07-29T03:22:42;0.85;;;0.82;;
67063;SDS011;58476;48.072;11.970;2022-07-29T03:25:11;1.00;;;0.90;;
67063;SDS011;58476;48.072;11.970;2022-07-29T03:27:41;0.80;;;0.80;;
67063;SDS011;58476;48.072;11.970;2022-07-29T03:30:07;1.00;;;1.00;;
67063;SDS011;58476;48.072;11.970;2022-07-29T03:32:34;0.82;;;0.82;;
67063;SDS011;58476;48.072;11.970;2022-07-29T03:35:00;0.80;;;0.80;;
67063;SDS011;58476;48.072;11.970;2022-07-29T03:37:26;1.15;;;1.00;;
67063;SDS011;58476;48.072;11.970;2022-07-29T03:39:51;0.80;;;0.80;;
67063;SDS011;58476;48.072;11.970;2022-07-29T03:42:20;0.90;;;0.90;;
67063;SDS011;58476;48.072;11.970;2022-07-29T03:44:47;0.70;;;0.70;;
67063;SDS011;58476;48.072;11.970;2022-07-29T03:47:15;3.22;;;1.00;;
67063;SDS011;58476;48.072;11.970;2022-07-29T03:49:44;1.55;;;0.90;;
67063;SDS011;58476;48.072;11.970;2022-07-29T03:52:12;0.90;;;0.90;;
67063;SDS011;58476;48.072;11.970;2022-07-29T03:54:38;1.50;;;0.80;;
67063;SDS011;58476;48.072;11.970;2022-07-29T03:57:04;1.63;;;0.90;;
67063;SDS011;58476;48.072;11.970;2022-07-29T03:59:31;1.15;;;1.00;;
67063;SDS011;58476;48.072;11.970;2022-07-29T04:01:57;1.05;;;0.95;;
67063;SDS011;58476;48.072;11.970;2022-07-29T04:04:24;0.90;;;0.90;;
67063;SDS011;58476;48.072;11.970;2022-07-29T04:06:49;1.35;;;1.00;;
67063;SDS011;58476;48.072;11.970;2022-07-29T04:09:15;1.00;;;1.00;;
67063;SDS011;58476;48.072;11.970;2022-07-29T04:11:41;2.97;;;1.30;;
67063;SDS011;58476;48.072;11.970;2022-07-29T04:14:06;3.17;;;1.15;;
67063;SDS011;58476;48.072;11.970;2022-07-29T04:16:32;4.03;;;1.40;;
67063;SDS011;58476;48.072;11.970;2022-07-29T04:18:57;3.83;;;1.50;;
67063;SDS011;58476;48.072;11.970;2022-07-29T04:21:23;2.90;;;1.30;;
67063;SDS011;58476;48.072;11.970;2022-07-29T04:23:49;1.80;;;1.42;;
67063;SDS011;58476;48.072;11.970;2022-07-29T04:26:14;2.42;;;1.33;;
67063;SDS011;58476;48.072;11.970;2022-07-29T04:28:40;1.60;;;1.50;;
67063;SDS011;58476;48.072;11.970;2022-07-29T04:31:05;2.53;;;1.67;;
67063;SDS011;58476;48.072;11.970;2022-07-29T04:33:31;3.20;;;1.90;;
67063;SDS011;58476;48.072;11.970;2022-07-29T04:35:56;3.47;;;1.77;;
67063;SDS011;58476;48.072;11.970;2022-07-29T04:38:21;7.65;;;1.83;;
67063;SDS011;58476;48.072;11.970;2022-07-29T04:40:47;2.20;;;1.90;;
67063;SDS011;58476;48.072;11.970;2022-07-29T04:43:12;2.38;;;1.98;;
67063;SDS011;58476;48.072;11.970;2022-07-29T04:45:37;2.78;;;1.90;;
67063;SDS011;58476;48.072;11.970;2022-07-29T04:48:03;5.60;;;2.00;;
67063;SDS011;58476;48.072;11.970;2022-07-29T04:50:28;3.10;;;2.00;;
67063;SDS011;58476;48.072;11.970;2022-07-29T04:52:54;2.72;;;1.95;;
67063;SDS011;58476;48.072;11.970;2022-07-29T04:55:19;6.22;;;1.90;;
67063;SDS011;58476;48.072;11.970;2022-07-29T04:57:44;2.70;;;1.60;;
67063;SDS011;58476;48.072;11.970;2022-07-29T05:00:10;3.88;;;1.88;;
67063;SDS011;58476;48.072;11.970;2022-07-29T05:02:35;6.80;;;2.00;;
67063;SDS011;58476;48.072;11.970;2022-07-29T05:05:01;3.17;;;1.75;;
67063;SDS011;58476;48.072;11.970;2022-07-29T05:07:26;2.88;;;1.85;;
67063;SDS011;58476;48.072;11.970;2022-07-29T05:09:51;5.75;;;1.92;;
67063;SDS011;58476;48.072;11.970;2022-07-29T05:12:17;8.25;;;2.42;;
67063;SDS011;58476;48.072;11.970;2022-07-29T05:14:42;5.38;;;2.10;;
67063;SDS011;58476;48.072;11.970;2022-07-29T05:17:07;3.38;;;1.85;;
67063;SDS011;58476;48.072;11.970;2022-07-29T05:19:33;7.18;;;1.98;;
67063;SDS011;58476;48.072;11.970;2022-07-29T05:21:58;4.32;;;1.80;;
67063;SDS011;58476;48.072;11.970;2022-07-29T05:24:23;10.98;;;2.67;;
67063;SDS011;58476;48.072;11.970;2022-07-29T05:26:49;6.65;;;2.40;;
67063;SDS011;58476;48.072;11.970;2022-07-29T05:29:14;4.60;;;1.90;;
67063;SDS011;58476;48.072;11.970;2022-07-29T05:31:39;4.78;;;2.10;;
67063;SDS011;58476;48.072;11.970;2022-07-29T05:34:07;7.07;;;2.45;;
67063;SDS011;58476;48.072;11.970;2022-07-29T05:36:32;9.50;;;2.88;;
67063;SDS011;58476;48.072;11.970;2022-07-29T05:38:57;7.13;;;2.05;;
67063;SDS011;58476;48.072;11.970;2022-07-29T05:41:23;19.75;;;5.40;;
67063;SDS011;58476;48.072;11.970;2022-07-29T05:43:48;10.40;;;3.53;;
67063;SDS011;58476;48.072;11.970;2022-07-29T05:46:13;7.07;;;2.58;;
67063;SDS011;58476;48.072;11.970;2022-07-29T05:48:39;9.57;;;2.78;;
67063;SDS011;58476;48.072;11.970;2022-07-29T05:51:04;18.90;;;4.13;;
67063;SDS011;58476;48.072;11.970;2022-07-29T05:53:30;13.05;;;3.85;;
67063;SDS011;58476;48.072;11.970;2022-07-29T05:55:55;9.25;;;2.85;;
67063;SDS011;58476;48.072;11.970;2022-07-29T05:58:20;9.38;;;3.08;;
67063;SDS011;58476;48.072;11.970;2022-07-29T06:00:46;8.30;;;2.70;;
67063;SDS011;58476;48.072;11.970;2022-07-29T06:03:11;6.57;;;2.53;;
67063;SDS011;58476;48.072;11.970;2022-07-29T06:05:37;7.60;;;2.95;;
67063;SDS011;58476;48.072;11.970;2022-07-29T06:08:02;11.43;;;3.28;;
67063;SDS011;58476;48.072;11.970;2022-07-29T06:10:27;6.82;;;2.60;;
67063;SDS011;58476;48.072;11.970;2022-07-29T06:12:53;6.25;;;2.80;;
67063;SDS011;58476;48.072;11.970;2022-07-29T06:15:18;6.57;;;2.65;;
67063;SDS011;58476;48.072;11.970;2022-07-29T06:17:44;10.15;;;2.92;;
67063;SDS011;58476;48.072;11.970;2022-07-29T06:20:09;7.53;;;2.75;;
67063;SDS011;58476;48.072;11.970;2022-07-29T06:22:35;8.35;;;2.85;;
67063;SDS011;58476;48.072;11.970;2022-07-29T06:25:00;8.27;;;2.67;;
67063;SDS011;58476;48.072;11.970;2022-07-29T06:27:27;6.82;;;2.72;;
67063;SDS011;58476;48.072;11.970;2022-07-29T06:29:52;5.25;;;2.78;;
67063;SDS011;58476;48.072;11.970;2022-07-29T06:32:17;7.70;;;3.45;;
67063;SDS011;58476;48.072;11.970;2022-07-29T06:34:43;5.80;;;2.50;;
67063;SDS011;58476;48.072;11.970;2022-07-29T06:37:08;11.13;;;3.92;;
67063;SDS011;58476;48.072;11.970;2022-07-29T06:39:34;6.68;;;2.83;;
67063;SDS011;58476;48.072;11.970;2022-07-29T06:42:00;6.07;;;2.55;;
67063;SDS011;58476;48.072;11.970;2022-07-29T06:44:26;10.23;;;3.70;;
67063;SDS011;58476;48.072;11.970;2022-07-29T06:46:51;12.20;;;3.53;;
67063;SDS011;58476;48.072;11.970;2022-07-29T06:49:17;12.57;;;3.72;;
67063;SDS011;58476;48.072;11.970;2022-07-29T06:51:42;7.57;;;2.92;;
67063;SDS011;58476;48.072;11.970;2022-07-29T06:54:07;6.13;;;2.70;;
67063;SDS011;58476;48.072;11.970;2022-07-29T06:56:33;6.80;;;2.72;;
67063;SDS011;58476;48.072;11.970;2022-07-29T06:58:59;5.22;;;2.63;;
67063;SDS011;58476;48.072;11.970;2022-07-29T07:01:24;10.15;;;3.10;;
67063;SDS011;58476;48.072;11.970;2022-07-29T07:03:50;9.13;;;3.15;;
67063;SDS011;58476;48.072;11.970;2022-07-29T07:06:15;3.45;;;1.92;;
67063;SDS011;58476;48.072;11.970;2022-07-29T07:08:40;6.78;;;2.40;;
67063;SDS011;58476;48.072;11.970;2022-07-29T07:11:06;4.80;;;2.30;;
67063;SDS011;58476;48.072;11.970;2022-07-29T07:13:31;5.55;;;2.38;;
67063;SDS011;58476;48.072;11.970;2022-07-29T07:15:56;4.68;;;1.95;;
67063;SDS011;58476;48.072;11.970;2022-07-29T07:18:22;4.28;;;2.00;;
67063;SDS011;58476;48.072;11.970;2022-07-29T07:20:47;6.18;;;2.03;;
67063;SDS011;58476;48.072;11.970;2022-07-29T07:23:14;2.55;;;1.90;;
67063;SDS011;58476;48.072;11.970;2022-07-29T07:25:39;2.60;;;1.83;;
67063;SDS011;58476;48.072;11.970;2022-07-29T07:28:05;2.65;;;1.80;;
67063;SDS011;58476;48.072;11.970;2022-07-29T07:30:30;3.28;;;1.80;;
67063;SDS011;58476;48.072;11.970;2022-07-29T07:32:55;4.47;;;2.00;;
67063;SDS011;58476;48.072;11.970;2022-07-29T07:35:21;4.55;;;1.98;;
67063;SDS011;58476;48.072;11.970;2022-07-29T07:37:46;4.32;;;1.95;;
67063;SDS011;58476;48.072;11.970;2022-07-29T07:40:12;2.70;;;1.83;;
67063;SDS011;58476;48.072;11.970;2022-07-29T07:42:38;2.80;;;1.98;;
67063;SDS011;58476;48.072;11.970;2022-07-29T07:45:04;2.22;;;1.70;;
67063;SDS011;58476;48.072;11.970;2022-07-29T07:47:30;1.75;;;1.60;;
67063;SDS011;58476;48.072;11.970;2022-07-29T07:49:55;3.83;;;1.80;;
67063;SDS011;58476;48.072;11.970;2022-07-29T07:52:21;2.20;;;1.70;;
67063;SDS011;58476;48.072;11.970;2022-07-29T07:54:47;2.17;;;1.70;;
67063;SDS011;58476;48.072;11.970;2022-07-29T07:57:13;2.92;;;1.70;;
67063;SDS011;58476;48.072;11.970;2022-07-29T07:59:38;2.13;;;1.70;;
67063;SDS011;58476;48.072;11.970;2022-07-29T08:02:04;3.33;;;1.70;;
67063;SDS011;58476;48.072;11.970;2022-07-29T08:04:30;4.65;;;1.70;;
67063;SDS011;58476;48.072;11.970;2022-07-29T08:06:56;3.20;;;1.70;;
67063;SDS011;58476;48.072;11.970;2022-07-29T08:09:23;2.03;;;1.70;;
67063;SDS011;58476;48.072;11.970;2022-07-29T08:11:49;3.97;;;1.75;;
67063;SDS011;58476;48.072;11.970;2022-07-29T08:14:14;3.13;;;1.70;;
67063;SDS011;58476;48.072;11.970;2022-07-29T08:16:40;1.73;;;1.58;;
67063;SDS011;58476;48.072;11.970;2022-07-29T08:19:06;3.75;;;1.70;;
67063;SDS011;58476;48.072;11.970;2022-07-29T08:21:31;2.05;;;1.67;;
67063;SDS011;58476;48.072;11.970;2022-07-29T08:23:56;2.75;;;1.50;;
67063;SDS011;58476;48.072;11.970;2022-07-29T08:26:22;4.18;;;1.60;;
67063;SDS011;58476;48.072;11.970;2022-07-29T08:28:47;2.70;;;1.70;;
67063;SDS011;58476;48.072;11.970;2022-07-29T08:31:12;2.15;;;1.70;;
67063;SDS011;58476;48.072;11.970;2022-07-29T08:33:38;1.92;;;1.60;;
67063;SDS011;58476;48.072;11.970;2022-07-29T08:36:07;2.10;;;1.40;;
67063;SDS011;58476;48.072;11.970;2022-07-29T08:38:33;2.50;;;1.50;;
67063;SDS011;58476;48.072;11.970;2022-07-29T08:41:00;2.40;;;1.70;;
67063;SDS011;58476;48.072;11.970;2022-07-29T08:43:26;5.13;;;1.83;;
67063;SDS011;58476;48.072;11.970;2022-07-29T08:45:53;4.93;;;1.60;;
67063;SDS011;58476;48.072;11.970;2022-07-29T08:48:19;2.92;;;1.67;;
67063;SDS011;58476;48.072;11.970;2022-07-29T08:50:47;2.05;;;1.77;;
67063;SDS011;58476;48.072;11.970;2022-07-29T08:53:15;2.20;;;1.50;;
67063;SDS011;58476;48.072;11.970;2022-07-29T08:55:46;4.00;;;1.60;;
67063;SDS011;58476;48.072;11.970;2022-07-29T08:58:12;1.77;;;1.60;;
67063;SDS011;58476;48.072;11.970;2022-07-29T09:00:42;5.85;;;1.92;;
67063;SDS011;58476;48.072;11.970;2022-07-29T09:03:09;2.85;;;1.50;;
67063;SDS011;58476;48.072;11.970;2022-07-29T09:05:41;6.35;;;2.03;;
67063;SDS011;58476;48.072;11.970;2022-07-29T09:08:07;4.13;;;1.80;;
67063;SDS011;58476;48.072;11.970;2022-07-29T09:10:34;3.15;;;1.75;;
67063;SDS011;58476;48.072;11.970;2022-07-29T09:13:00;3.95;;;1.67;;
67063;SDS011;58476;48.072;11.970;2022-07-29T09:15:25;5.18;;;1.60;;
67063;SDS011;58476;48.072;11.970;2022-07-29T09:17:51;2.95;;;1.75;;
67063;SDS011;58476;48.072;11.970;2022-07-29T09:20:17;2.35;;;1.42;;
67063;SDS011;58476;48.072;11.970;2022-07-29T09:22:44;3.28;;;2.00;;
67063;SDS011;58476;48.072;11.970;2022-07-29T09:25:11;2.97;;;1.60;;
67063;SDS011;58476;48.072;11.970;2022-07-29T09:27:37;2.00;;;1.60;;
67063;SDS011;58476;48.072;11.970;2022-07-29T09:30:03;1.63;;;1.40;;
67063;SDS011;58476;48.072;11.970;2022-07-29T09:32:34;3.63;;;1.60;;
67063;SDS011;58476;48.072;11.970;2022-07-29T09:35:20;3.45;;;1.58;;
67063;SDS011;58476;48.072;11.970;2022-07-29T09:37:47;1.60;;;1.50;;
67063;SDS011;58476;48.072;11.970;2022-07-29T09:40:30;2.60;;;1.58;;
67063;SDS011;58476;48.072;11.970;2022-07-29T09:42:58;2.78;;;1.70;;
67063;SDS011;58476;48.072;11.970;2022-07-29T09:45:39;1.45;;;1.35;;
67063;SDS011;58476;48.072;11.970;2022-07-29T09:48:14;2.10;;;1.60;;
67063;SDS011;58476;48.072;11.970;2022-07-29T09:50:44;1.80;;;1.50;;
67063;SDS011;58476;48.072;11.970;2022-07-29T09:53:29;3.35;;;1.65;;
67063;SDS011;58476;48.072;11.970;2022-07-29T09:55:59;2.38;;;1.77;;
67063;SDS011;58476;48.072;11.970;2022-07-29T09:58:24;1.60;;;1.45;;
67063;SDS011;58476;48.072;11.970;2022-07-29T10:00:50;4.93;;;1.70;;
67063;SDS011;58476;48.072;11.970;2022-07-29T10:03:17;1.77;;;1.60;;
67063;SDS011;58476;48.072;11.970;2022-07-29T10:05:43;2.38;;;1.67;;
67063;SDS011;58476;48.072;11.970;2022-07-29T10:08:09;3.78;;;1.75;;
67063;SDS011;58476;48.072;11.970;2022-07-29T10:10:36;1.92;;;1.60;;
67063;SDS011;58476;48.072;11.970;2022-07-29T10:13:06;3.20;;;1.50;;
67063;SDS011;58476;48.072;11.970;2022-07-29T10:15:34;4.90;;;1.80;;
67063;SDS011;58476;48.072;11.970;2022-07-29T10:18:01;2.15;;;1.70;;
67063;SDS011;58476;48.072;11.970;2022-07-29T10:20:30;2.15;;;1.65;;
67063;SDS011;58476;48.072;11.970;2022-07-29T10:22:55;4.30;;;2.30;;
67063;SDS011;58476;48.072;11.970;2022-07-29T10:25:21;4.70;;;1.70;;
67063;SDS011;58476;48.072;11.970;2022-07-29T10:27:47;2.60;;;1.80;;
67063;SDS011;58476;48.072;11.970;2022-07-29T10:30:15;3.13;;;1.80;;
67063;SDS011;58476;48.072;11.970;2022-07-29T10:33:43;2.30;;;1.85;;
67063;SDS011;58476;48.072;11.970;2022-07-29T10:44:16;3.20;;;1.60;;
67063;SDS011;58476;48.072;11.970;2022-07-29T10:46:43;3.33;;;1.50;;
67063;SDS011;58476;48.072;11.970;2022-07-29T10:49:10;4.07;;;1.90;;
67063;SDS011;58476;48.072;11.970;2022-07-29T10:59:40;3.42;;;1.80;;
67063;SDS011;58476;48.072;11.970;2022-07-29T11:05:03;2.42;;;1.90;;
67063;SDS011;58476;48.072;11.970;2022-07-29T11:10:37;5.70;;;1.92;;
67063;SDS011;58476;48.072;11.970;2022-07-29T11:13:02;2.83;;;2.25;;
67063;SDS011;58476;48.072;11.970;2022-07-29T11:15:28;3.33;;;1.60;;
67063;SDS011;58476;48.072;11.970;2022-07-29T11:25:46;5.40;;;1.90;;
67063;SDS011;58476;48.072;11.970;2022-07-29T11:28:38;5.57;;;1.90;;
67063;SDS011;58476;48.072;11.970;2022-07-29T11:31:12;5.07;;;1.90;;
67063;SDS011;58476;48.072;11.970;2022-07-29T11:33:38;7.15;;;1.98;;
67063;SDS011;58476;48.072;11.970;2022-07-29T11:36:10;12.07;;;2.00;;
67063;SDS011;58476;48.072;11.970;2022-07-29T11:38:36;6.40;;;1.80;;
67063;SDS011;58476;48.072;11.970;2022-07-29T11:49:21;4.82;;;2.20;;
67063;SDS011;58476;48.072;11.970;2022-07-29T11:51:54;6.68;;;2.00;;
67063;SDS011;58476;48.072;11.970;2022-07-29T11:54:23;6.50;;;2.20;;
67063;SDS011;58476;48.072;11.970;2022-07-29T11:56:50;6.25;;;2.15;;
67063;SDS011;58476;48.072;11.970;2022-07-29T11:59:16;6.05;;;1.92;;
67063;SDS011;58476;48.072;11.970;2022-07-29T12:01:53;2.78;;;2.00;;
67063;SDS011;58476;48.072;11.970;2022-07-29T12:04:19;4.18;;;2.17;;
67063;SDS011;58476;48.072;11.970;2022-07-29T12:06:51;3.15;;;1.90;;
67063;SDS011;58476;48.072;11.970;2022-07-29T12:09:21;3.97;;;1.98;;
67063;SDS011;58476;48.072;11.970;2022-07-29T12:11:47;2.45;;;2.00;;
67063;SDS011;58476;48.072;11.970;2022-07-29T12:16:54;6.50;;;2.20;;
67063;SDS011;58476;48.072;11.970;2022-07-29T12:19:20;6.40;;;1.88;;
67063;SDS011;58476;48.072;11.970;2022-07-29T12:21:49;5.82;;;1.95;;
67063;SDS011;58476;48.072;11.970;2022-07-29T12:24:17;4.00;;;1.80;;
67063;SDS011;58476;48.072;11.970;2022-07-29T12:26:50;2.95;;;2.03;;
67063;SDS011;58476;48.072;11.970;2022-07-29T12:29:17;5.43;;;1.92;;
67063;SDS011;58476;48.072;11.970;2022-07-29T12:31:43;5.75;;;1.70;;
67063;SDS011;58476;48.072;11.970;2022-07-29T12:34:09;4.93;;;2.05;;
67063;SDS011;58476;48.072;11.970;2022-07-29T12:36:35;6.45;;;2.10;;
67063;SDS011;58476;48.072;11.970;2022-07-29T12:39:01;6.78;;;2.38;;
67063;SDS011;58476;48.072;11.970;2022-07-29T12:41:28;5.43;;;1.90;;
67063;SDS011;58476;48.072;11.970;2022-07-29T12:43:54;6.22;;;2.10;;
67063;SDS011;58476;48.072;11.970;2022-07-29T12:46:20;4.40;;;1.92;;
67063;SDS011;58476;48.072;11.970;2022-07-29T12:48:49;2.35;;;1.90;;
67063;SDS011;58476;48.072;11.970;2022-07-29T12:51:17;6.07;;;1.70;;
67063;SDS011;58476;48.072;11.970;2022-07-29T12:54:00;5.38;;;1.88;;
67063;SDS011;58476;48.072;11.970;2022-07-29T12:56:29;3.42;;;2.03;;
67063;SDS011;58476;48.072;11.970;2022-07-29T12:58:54;3.80;;;2.10;;
67063;SDS011;58476;48.072;11.970;2022-07-29T13:01:20;5.88;;;2.10;;
67063;SDS011;58476;48.072;11.970;2022-07-29T13:03:46;10.70;;;2.10;;
67063;SDS011;58476;48.072;11.970;2022-07-29T13:06:27;10.23;;;2.00;;
67063;SDS011;58476;48.072;11.970;2022-07-29T13:09:05;6.88;;;1.95;;
67063;SDS011;58476;48.072;11.970;2022-07-29T13:14:04;4.55;;;1.90;;
67063;SDS011;58476;48.072;11.970;2022-07-29T13:16:30;4.35;;;1.70;;
67063;SDS011;58476;48.072;11.970;2022-07-29T13:19:11;4.75;;;1.98;;
67063;SDS011;58476;48.072;11.970;2022-07-29T13:21:37;4.35;;;1.90;;
67063;SDS011;58476;48.072;11.970;2022-07-29T13:24:04;2.88;;;1.73;;
67063;SDS011;58476;48.072;11.970;2022-07-29T13:26:31;3.58;;;1.70;;
67063;SDS011;58476;48.072;11.970;2022-07-29T13:28:57;3.53;;;2.00;;
67063;SDS011;58476;48.072;11.970;2022-07-29T13:31:22;3.45;;;1.88;;
67063;SDS011;58476;48.072;11.970;2022-07-29T13:33:47;5.85;;;1.70;;
67063;SDS011;58476;48.072;11.970;2022-07-29T13:36:13;5.55;;;2.00;;
67063;SDS011;58476;48.072;11.970;2022-07-29T13:38:38;3.13;;;1.90;;
67063;SDS011;58476;48.072;11.970;2022-07-29T13:41:04;3.25;;;1.60;;
67063;SDS011;58476;48.072;11.970;2022-07-29T13:43:29;2.92;;;1.80;;
67063;SDS011;58476;48.072;11.970;2022-07-29T13:45:54;2.95;;;1.50;;
67063;SDS011;58476;48.072;11.970;2022-07-29T13:48:20;2.55;;;1.63;;
67063;SDS011;58476;48.072;11.970;2022-07-29T13:50:45;3.03;;;1.75;;
67063;SDS011;58476;48.072;11.970;2022-07-29T13:53:10;4.80;;;1.70;;
67063;SDS011;58476;48.072;11.970;2022-07-29T13:55:36;3.45;;;1.45;;
67063;SDS011;58476;48.072;11.970;2022-07-29T13:58:01;2.47;;;1.52;;
67063;SDS011;58476;48.072;11.970;2022-07-29T14:00:26;3.05;;;1.52;;
67063;SDS011;58476;48.072;11.970;2022-07-29T14:02:52;2.08;;;1.35;;
67063;SDS011;58476;48.072;11.970;2022-07-29T14:05:17;2.45;;;1.60;;
67063;SDS011;58476;48.072;11.970;2022-07-29T14:07:42;2.33;;;1.40;;
67063;SDS011;58476;48.072;11.970;2022-07-29T14:10:08;4.68;;;1.70;;
67063;SDS011;58476;48.072;11.970;2022-07-29T14:12:35;2.88;;;1.60;;
67063;SDS011;58476;48.072;11.970;2022-07-29T14:15:00;2.45;;;1.60;;
67063;SDS011;58476;48.072;11.970;2022-07-29T14:17:26;2.28;;;1.52;;
67063;SDS011;58476;48.072;11.970;2022-07-29T14:19:51;3.58;;;1.45;;
67063;SDS011;58476;48.072;11.970;2022-07-29T14:22:17;1.60;;;1.50;;
67063;SDS011;58476;48.072;11.970;2022-07-29T14:24:42;5.55;;;1.80;;
67063;SDS011;58476;48.072;11.970;2022-07-29T14:27:07;7.88;;;2.28;;
67063;SDS011;58476;48.072;11.970;2022-07-29T14:29:33;16.52;;;2.00;;
67063;SDS011;58476;48.072;11.970;2022-07-29T14:31:59;5.10;;;1.60;;
67063;SDS011;58476;48.072;11.970;2022-07-29T14:34:24;7.63;;;1.80;;
67063;SDS011;58476;48.072;11.970;2022-07-29T14:36:49;2.72;;;1.50;;
67063;SDS011;58476;48.072;11.970;2022-07-29T14:39:15;6.05;;;1.83;;
67063;SDS011;58476;48.072;11.970;2022-07-29T14:41:40;3.10;;;1.58;;
67063;SDS011;58476;48.072;11.970;2022-07-29T14:44:06;2.65;;;1.60;;
67063;SDS011;58476;48.072;11.970;2022-07-29T14:46:31;5.63;;;1.50;;
67063;SDS011;58476;48.072;11.970;2022-07-29T14:48:56;2.85;;;1.70;;
67063;SDS011;58476;48.072;11.970;2022-07-29T14:51:22;2.17;;;1.67;;
67063;SDS011;58476;48.072;11.970;2022-07-29T14:53:47;3.25;;;1.40;;
67063;SDS011;58476;48.072;11.970;2022-07-29T14:56:12;1.60;;;1.50;;
67063;SDS011;58476;48.072;11.970;2022-07-29T14:58:38;1.77;;;1.50;;
67063;SDS011;58476;48.072;11.970;2022-07-29T15:01:03;1.58;;;1.40;;
67063;SDS011;58476;48.072;11.970;2022-07-29T15:03:28;3.72;;;1.50;;
67063;SDS011;58476;48.072;11.970;2022-07-29T15:05:54;4.07;;;1.50;;
67063;SDS011;58476;48.072;11.970;2022-07-29T15:08:19;1.50;;;1.40;;
67063;SDS011;58476;48.072;11.970;2022-07-29T15:10:44;3.08;;;1.60;;
67063;SDS011;58476;48.072;11.970;2022-07-29T15:13:10;4.55;;;1.88;;
67063;SDS011;58476;48.072;11.970;2022-07-29T15:15:35;2.22;;;1.50;;
67063;SDS011;58476;48.072;11.970;2022-07-29T15:18:01;1.60;;;1.50;;
67063;SDS011;58476;48.072;11.970;2022-07-29T15:20:26;1.95;;;1.50;;
67063;SDS011;58476;48.072;11.970;2022-07-29T15:22:51;3.25;;;1.40;;
67063;SDS011;58476;48.072;11.970;2022-07-29T15:25:17;6.25;;;1.40;;
67063;SDS011;58476;48.072;11.970;2022-07-29T15:27:42;1.60;;;1.50;;
67063;SDS011;58476;48.072;11.970;2022-07-29T15:30:08;3.92;;;1.52;;